NEODyS-2

Near Earth Objects - Dynamic Site
NEODyS ∴ Observatories ∴ Site G58 ∴ Obs & residuals
Contact »
G58  ▹ 
OBSERVATIONS AND RESIDUALS

G58-Chabot Space and Science Center, Oakland

Detections | Residuals | Detections & Residuals

[1-200] [201-400] [401-600] [601-800] [801-1000] [1001-1200] [1201-1400] [1401-1600] [1601-1725]

Designation T Tech N Date Right Ascension Declination Apparent Magnitude Star Catalog Site code χ Used A Used M
yr-mo-day precision hr:min:sec precision rms F bias residual deg min sec precision rms F bias residual mag/col rms residual
1991VH O C 2008-07-07.21138 1.000E-05 16:00:38.600 1.500E-01 1.000 F 0.026 -0.173 +49° 50' 34.40" 1.000E-01 1.000 F 0.328 0.352 15.4 V 0.70 -0.21 o G58 0.39 Yes Yes
1991VH O C 2008-07-07.21432 1.000E-05 16:00:38.170 1.500E-01 1.000 F 0.026 0.087 +49° 50' 31.90" 1.000E-01 1.000 F 0.328 0.283 15.2 V 0.70 -0.41 o G58 0.30 Yes Yes
1991VH O C 2008-07-07.21727 1.000E-05 16:00:37.700 1.500E-01 1.000 F 0.026 -0.026 +49° 50' 29.30" 1.000E-01 1.000 F 0.328 0.134 15.0 V 0.70 -0.61 o G58 0.14 Yes Yes
2005TU45 O C 2008-07-07.26856 1.000E-05 18:00:42.830 1.500E-01 1.000 F 0.053 0.267 +10° 05' 12.20" 1.000E-01 1.000 F 0.126 -1.415 17.1 V 0.70 -0.17 o G58 1.44 Yes Yes
2005TU45 O C 2008-07-07.27201 1.000E-05 18:00:42.650 1.500E-01 1.000 F 0.053 0.499 +10° 04' 56.60" 1.000E-01 1.000 F 0.126 -0.790 17.3 V 0.70 0.03 o G58 0.94 Yes Yes
2005TU45 O C 2008-07-07.27545 1.000E-05 18:00:42.450 1.500E-01 1.000 F 0.053 0.429 +10° 04' 43.00" 1.000E-01 1.000 F 0.126 1.789 17.0 V 0.70 -0.27 o G58 1.84 Yes Yes
2003YE45 O C 2008-08-25.27344 1.000E-05 19:08:28.240 1.500E-01 1.000 F 0.015 -0.424 +36° 45' 58.20" 1.000E-01 1.000 F 0.212 0.218 18.4 V 0.70 1.00 o G58 0.48 Yes Yes
2003YE45 O C 2008-08-25.27775 1.000E-05 19:08:28.550 1.500E-01 1.000 F 0.015 -0.567 +36° 45' 52.80" 1.000E-01 1.000 F 0.212 0.131 16.9 V 0.70 -0.50 o G58 0.58 Yes Yes
2003YE45 O C 2008-08-25.28208 1.000E-05 19:08:28.900 1.500E-01 1.000 F 0.015 -0.254 +36° 45' 46.60" 1.000E-01 1.000 F 0.212 -0.722 16.8 V 0.70 -0.60 o G58 0.77 Yes Yes
2004SB56 O C 2008-08-25.28888 1.000E-05 18:13:12.130 1.500E-01 1.000 F 0.022 -0.242 +55° 24' 52.50" 1.000E-01 1.000 F 0.198 -5.892 18.6 V 0.70 0.51 o G58 5.88 No Yes
2004SB56 O C 2008-08-25.29674 1.000E-05 18:13:11.880 1.500E-01 1.000 F 0.022 -0.232 +55° 24' 35.00" 1.000E-01 1.000 F 0.198 -0.199 17.7 V 0.70 -0.39 o G58 0.31 Yes Yes
2005TZ51 O C 2008-09-27.32801 1.000E-05 22:43:36.910 1.500E-01 1.000 F -0.017 0.326 +34° 46' 42.60" 1.000E-01 1.000 F 0.118 0.829 17.4 V 0.70 -0.27 o G58 0.89 Yes Yes
2005TZ51 O C 2008-09-27.33287 1.000E-05 22:43:36.620 1.500E-01 1.000 F -0.017 0.293 +34° 46' 45.90" 1.000E-01 1.000 F 0.118 0.737 17.4 V 0.70 -0.27 o G58 0.80 Yes Yes
2005TZ51 O C 2008-09-27.33772 1.000E-05 22:43:36.320 1.500E-01 1.000 F -0.017 0.123 +34° 46' 49.10" 1.000E-01 1.000 F 0.118 0.562 17.6 V 0.70 -0.07 o G58 0.58 Yes Yes
2000DP107 O C 2008-10-23.12424 1.000E-05 00:30:57.910 1.500E-01 1.000 F -0.145 0.083 +24° 50' 27.30" 1.000E-01 1.000 F 0.260 -0.030 15.8 V 0.70 -0.99 o G58 0.09 Yes Yes
2000DP107 O C 2008-10-23.12881 1.000E-05 00:30:57.610 1.500E-01 1.000 F -0.145 0.147 +24° 50' 25.60" 1.000E-01 1.000 F 0.260 0.257 15.8 V 0.70 -0.99 o G58 0.30 Yes Yes
2000DP107 O C 2008-10-23.13338 1.000E-05 00:30:57.310 1.500E-01 1.000 F -0.145 0.227 +24° 50' 23.60" 1.000E-01 1.000 F 0.260 0.251 16.2 V 0.70 -0.59 o G58 0.34 Yes Yes
2008SQ1 O C 2008-10-23.18752 1.000E-05 00:56:04.530 1.500E-01 1.000 F -0.097 0.337 +31° 32' 49.00" 1.000E-01 1.000 F 0.204 -0.644 17.5 V 0.70 -0.10 o G58 0.73 Yes Yes
2008SQ1 O C 2008-10-23.19329 1.000E-05 00:56:04.750 1.500E-01 1.000 F -0.097 0.878 +31° 32' 50.80" 1.000E-01 1.000 F 0.204 -0.220 17.5 V 0.70 -0.10 o G58 0.91 Yes Yes
2008SQ1 O C 2008-10-23.19905 1.000E-05 00:56:04.890 1.500E-01 1.000 F -0.097 0.416 +31° 32' 52.80" 1.000E-01 1.000 F 0.204 0.420 17.7 V 0.70 0.10 o G58 0.59 Yes Yes
Cuno O C 2008-10-23.20483 1.000E-05 00:53:06.730 1.500E-01 1.000 F -0.198 0.142 +17° 34' 07.40" 1.000E-01 1.000 F 0.263 -0.473 16.5 V 0.70 -1.13 o G58 0.49 Yes Yes
Cuno O C 2008-10-23.20977 1.000E-05 00:53:06.360 1.500E-01 1.000 F -0.198 0.879 +17° 34' 05.10" 1.000E-01 1.000 F 0.263 -0.156 17.5 V 0.70 -0.13 o G58 0.89 Yes Yes
Cuno O C 2008-10-23.21542 1.000E-05 00:53:05.870 1.500E-01 1.000 F -0.198 0.768 +17° 34' 02.40" 1.000E-01 1.000 F 0.263 0.138 17.2 V 0.70 -0.43 o G58 0.78 Yes Yes
1998UO1 O C 2008-10-26.29303 1.000E-05 22:44:01.580 1.500E-01 1.000 F 0.024 -0.105 +24° 33' 24.80" 1.000E-01 1.000 F 0.160 -0.560 16.6 V 0.70 -0.51 o G58 0.57 Yes Yes
1998UO1 O C 2008-10-26.29844 1.000E-05 22:44:01.850 1.500E-01 1.000 F 0.024 0.320 +24° 33' 19.50" 1.000E-01 1.000 F 0.160 -0.155 16.4 V 0.70 -0.71 o G58 0.36 Yes Yes
1998UO1 O C 2008-10-26.30384 1.000E-05 22:44:02.080 1.500E-01 1.000 F 0.024 0.194 +24° 33' 13.80" 1.000E-01 1.000 F 0.160 -0.158 16.7 V 0.70 -0.42 o G58 0.25 Yes Yes
Heracles O C 2008-10-26.32206 1.000E-05 23:47:48.160 1.500E-01 1.000 F -0.080 -1.001 +11° 22' 52.90" 1.000E-01 1.000 F 0.288 0.718 18.8 V 0.70 0.28 o G58 1.23 Yes Yes
Heracles O C 2008-10-26.32737 1.000E-05 23:47:47.930 1.500E-01 1.000 F -0.080 0.634 +11° 22' 48.40" 1.000E-01 1.000 F 0.288 -0.959 18.4 V 0.70 -0.12 o G58 1.15 Yes Yes
Heracles O C 2008-10-26.33269 1.000E-05 23:47:47.480 1.500E-01 1.000 F -0.080 -0.960 +11° 22' 45.60" 1.000E-01 1.000 F 0.288 -0.929 19.8 V 0.70 1.28 o G58 1.34 Yes Yes
1998JH2 O C 2008-11-23.32352 1.000E-05 06:25:15.810 1.500E-01 1.000 F -0.090 0.304 +29° 07' 10.60" 1.000E-01 1.000 F 0.179 0.214 17.7 V 0.70 -0.75 o G58 0.37 Yes Yes
1998JH2 O C 2008-11-23.32641 1.000E-05 06:25:15.550 1.500E-01 1.000 F -0.090 -0.137 +29° 07' 11.00" 1.000E-01 1.000 F 0.179 -0.546 17.9 V 0.70 -0.55 o G58 0.56 Yes Yes
1998JH2 O C 2008-11-23.32927 1.000E-05 06:25:15.350 1.500E-01 1.000 F -0.090 0.179 +29° 07' 12.80" 1.000E-01 1.000 F 0.179 0.106 17.8 V 0.70 -0.65 o G58 0.21 Yes Yes
Boreas O C 2008-11-23.35898 1.000E-05 02:59:01.640 1.500E-01 1.000 F -0.093 0.238 +42° 18' 41.60" 1.000E-01 1.000 F 0.237 0.010 17.2 V 0.70 -0.05 o G58 0.24 Yes Yes
Boreas O C 2008-11-23.36256 1.000E-05 02:59:01.330 1.500E-01 1.000 F -0.093 0.271 +42° 18' 39.60" 1.000E-01 1.000 F 0.237 0.011 17.0 V 0.70 -0.25 o G58 0.27 Yes Yes
Boreas O C 2008-11-23.36611 1.000E-05 02:59:01.030 1.500E-01 1.000 F -0.093 0.384 +42° 18' 37.80" 1.000E-01 1.000 F 0.237 0.198 17.1 V 0.70 -0.15 o G58 0.43 Yes Yes
2001HG31 O C 2008-12-11.20516 1.000E-05 03:05:42.170 1.500E-01 1.000 F -0.157 0.182 +32° 31' 58.90" 1.000E-01 1.000 F 0.232 -0.088 15.4 V 0.70 0.46 o G58 0.20 Yes Yes
2001HG31 O C 2008-12-11.20875 1.000E-05 03:05:42.110 1.500E-01 1.000 F -0.157 0.163 +32° 32' 03.10" 1.000E-01 1.000 F 0.232 -0.058 15.5 V 0.70 0.56 o G58 0.17 Yes Yes
2001HG31 O C 2008-12-11.21229 1.000E-05 03:05:42.060 1.500E-01 1.000 F -0.157 0.261 +32° 32' 07.20" 1.000E-01 1.000 F 0.232 -0.064 15.6 V 0.70 0.66 o G58 0.27 Yes Yes
2001HG31 O C 2008-12-11.21584 1.000E-05 03:05:41.990 1.500E-01 1.000 F -0.157 0.110 +32° 32' 11.20" 1.000E-01 1.000 F 0.232 -0.175 15.5 V 0.70 0.56 o G58 0.21 Yes Yes
1998JH2 O C 2008-12-11.31637 1.000E-05 05:57:26.360 1.500E-01 1.000 F -0.045 0.054 +30° 39' 25.90" 1.000E-01 1.000 F 0.269 -0.013 17.9 V 0.70 -0.28 o G58 0.06 Yes Yes
1998JH2 O C 2008-12-11.31926 1.000E-05 05:57:26.070 1.500E-01 1.000 F -0.045 0.238 +30° 39' 26.60" 1.000E-01 1.000 F 0.269 0.083 17.8 V 0.70 -0.38 o G58 0.25 Yes Yes
1998JH2 O C 2008-12-11.32211 1.000E-05 05:57:25.750 1.500E-01 1.000 F -0.045 -0.017 +30° 39' 27.10" 1.000E-01 1.000 F 0.269 -0.012 17.4 V 0.70 -0.78 o G58 0.02 Yes Yes
1998JH2 O C 2008-12-11.32495 1.000E-05 05:57:25.450 1.500E-01 1.000 F -0.045 -0.028 +30° 39' 27.70" 1.000E-01 1.000 F 0.269 -0.004 17.2 V 0.70 -0.98 o G58 0.03 Yes Yes
1996HW1 O C 2009-01-04.32123 1.000E-05 03:30:07.090 1.500E-01 1.000 F -0.151 0.196 +01° 47' 50.10" 1.000E-01 1.000 F 0.214 0.180 17.2 V 0.70 0.09 o G58 0.27 Yes Yes
1996HW1 O C 2009-01-04.32403 1.000E-05 03:30:07.260 1.500E-01 1.000 F -0.151 0.188 +01° 47' 52.30" 1.000E-01 1.000 F 0.214 -0.121 17.2 V 0.70 0.09 o G58 0.22 Yes Yes
1996HW1 O C 2009-01-04.32681 1.000E-05 03:30:07.410 1.500E-01 1.000 F -0.151 -0.104 +01° 47' 55.00" 1.000E-01 1.000 F 0.214 0.096 17.2 V 0.70 0.09 o G58 0.14 Yes Yes
2008XE2 O C 2009-01-18.39174 1.000E-05 09:26:09.930 1.500E-01 1.000 F 0.037 0.611 +43° 15' 41.20" 1.000E-01 1.000 F 0.215 0.292 19.1 V 0.70 0.22 o G58 0.68 Yes Yes
2008XE2 O C 2009-01-18.39593 1.000E-05 09:26:09.760 1.500E-01 1.000 F 0.037 -0.144 +43° 15' 41.40" 1.000E-01 1.000 F 0.215 0.547 18.8 V 0.70 -0.08 o G58 0.57 Yes Yes
2008XE2 O C 2009-01-18.40009 1.000E-05 09:26:09.670 1.500E-01 1.000 F 0.037 -0.031 +43° 15' 40.90" 1.000E-01 1.000 F 0.215 0.110 19.2 V 0.70 0.32 o G58 0.12 Yes Yes
2009AF16 O C 2009-01-29.22112 1.000E-05 07:23:05.140 1.500E-01 1.000 F -0.018 0.236 +20° 01' 33.50" 1.000E-01 1.000 F 0.233 -0.015 18.1 C 0.70 -0.58 o G58 0.24 Yes Yes
2009AF16 O C 2009-01-29.22702 1.000E-05 07:23:05.280 1.500E-01 1.000 F -0.018 -0.018 +20° 01' 05.10" 1.000E-01 1.000 F 0.233 0.540 19.1 C 0.70 0.42 o G58 0.54 Yes Yes
2009AF16 O C 2009-01-29.23294 1.000E-05 07:23:05.450 1.500E-01 1.000 F -0.018 0.159 +20° 00' 35.30" 1.000E-01 1.000 F 0.233 -0.194 18.8 C 0.70 0.12 o G58 0.25 Yes Yes
2009BD58 O C 2009-01-29.24034 1.000E-05 08:08:57.900 1.500E-01 1.000 F -0.024 0.382 +19° 51' 21.00" 1.000E-01 1.000 F 0.249 -0.065 18.0 C 0.70 0.26 o G58 0.39 Yes Yes
2009BD58 O C 2009-01-29.24468 1.000E-05 08:08:57.790 1.500E-01 1.000 F -0.024 0.090 +19° 52' 01.30" 1.000E-01 1.000 F 0.249 0.025 18.1 C 0.70 0.36 o G58 0.09 Yes Yes
2009BD58 O C 2009-01-29.24897 1.000E-05 08:08:57.710 1.500E-01 1.000 F -0.024 0.228 +19° 52' 40.80" 1.000E-01 1.000 F 0.249 -0.228 18.2 C 0.70 0.46 o G58 0.32 Yes Yes
2009BA11 O C 2009-01-29.28008 1.000E-05 09:25:05.230 1.500E-01 1.000 F 0.041 0.882 +21° 45' 22.40" 1.000E-01 1.000 F 0.282 -0.327 19.0 C 0.70 -0.05 o G58 0.97 Yes Yes
2009BA11 O C 2009-01-29.28439 1.000E-05 09:25:06.440 1.500E-01 1.000 F 0.041 -0.351 +21° 45' 06.40" 1.000E-01 1.000 F 0.282 0.444 18.9 C 0.70 -0.15 o G58 0.58 Yes Yes
2009BA11 O C 2009-01-29.28903 1.000E-05 09:25:07.870 1.500E-01 1.000 F 0.041 0.124 +21° 44' 48.10" 1.000E-01 1.000 F 0.282 0.227 19.0 C 0.70 -0.05 o G58 0.26 Yes Yes
2009BK71 O C 2009-02-01.33130 1.000E-05 08:45:16.520 1.500E-01 1.000 F -0.004 -0.083 +40° 59' 21.60" 1.000E-01 1.000 F 0.311 -0.194 18.5 C 0.70 0.02 o G58 0.21 Yes Yes
2009BK71 O C 2009-02-01.33653 1.000E-05 08:45:14.870 1.500E-01 1.000 F -0.004 0.382 +40° 58' 56.30" 1.000E-01 1.000 F 0.311 1.054 19.3 C 0.70 0.82 o G58 1.13 Yes Yes
2009BK71 O C 2009-02-01.34175 1.000E-05 08:45:13.130 1.500E-01 1.000 F -0.004 -0.214 +40° 58' 28.70" 1.000E-01 1.000 F 0.311 -0.036 18.0 C 0.70 -0.48 o G58 0.22 Yes Yes
2009BL58 O C 2009-02-01.35035 1.000E-05 09:01:01.830 1.500E-01 1.000 F 0.035 -0.290 +29° 52' 21.10" 1.000E-01 1.000 F 0.349 0.070 19.2 C 0.70 0.04 o G58 0.30 Yes Yes
2009BL58 O C 2009-02-01.35582 1.000E-05 09:01:02.670 1.500E-01 1.000 F 0.035 -0.068 +29° 52' 06.20" 1.000E-01 1.000 F 0.349 -0.208 18.4 C 0.70 -0.76 o G58 0.22 Yes Yes
2009BL58 O C 2009-02-01.36184 1.000E-05 09:01:03.590 1.500E-01 1.000 F 0.035 0.099 +29° 51' 50.10" 1.000E-01 1.000 F 0.349 -0.122 18.7 C 0.70 -0.46 o G58 0.16 Yes Yes
2001DR8 O C 2009-02-01.37118 1.000E-05 10:50:47.570 1.500E-01 1.000 F 0.190 0.117 +09° 50' 31.30" 1.000E-01 1.000 F 0.143 0.704 20.0 C 0.70 -0.08 o G58 0.71 Yes Yes
2001DR8 O C 2009-02-01.37669 1.000E-05 10:50:46.820 1.500E-01 1.000 F 0.190 0.018 +09° 50' 33.90" 1.000E-01 1.000 F 0.143 0.448 19.9 C 0.70 -0.18 o G58 0.45 Yes Yes
2001DR8 O C 2009-02-01.38328 1.000E-05 10:50:45.980 1.500E-01 1.000 F 0.190 0.746 +09° 50' 37.20" 1.000E-01 1.000 F 0.143 0.334 20.2 C 0.70 0.12 o G58 0.82 Yes Yes
2009BE58 O C 2009-02-01.39078 1.000E-05 11:29:28.980 1.500E-01 1.000 F 0.193 0.102 -01° 54' 39.70" 1.000E-01 1.000 F 0.072 -0.235 18.4 C 0.70 0.61 o G58 0.26 Yes Yes
2009BE58 O C 2009-02-01.39545 1.000E-05 11:29:30.320 1.500E-01 1.000 F 0.193 0.551 -01° 54' 53.20" 1.000E-01 1.000 F 0.072 -0.059 18.6 C 0.70 0.81 o G58 0.56 Yes Yes
2009BE58 O C 2009-02-01.39979 1.000E-05 11:29:31.490 1.500E-01 1.000 F 0.193 -0.156 -01° 55' 06.00" 1.000E-01 1.000 F 0.072 -0.139 18.5 C 0.70 0.71 o G58 0.21 Yes Yes
2003QO104 O C 2009-05-17.29510 1.000E-05 10:18:58.520 1.500E-01 1.000 F 0.086 0.397 +25° 32' 04.50" 1.000E-01 1.000 F 0.183 0.235 14.7 C 0.70 0.20 o G58 0.46 Yes Yes
2003QO104 O C 2009-05-17.29793 1.000E-05 10:18:58.500 1.500E-01 1.000 F 0.086 0.359 +25° 31' 51.50" 1.000E-01 1.000 F 0.183 0.206 14.9 C 0.70 0.40 o G58 0.41 Yes Yes
2003QO104 O C 2009-05-17.30605 1.000E-05 10:18:58.440 1.500E-01 1.000 F 0.086 0.144 +25° 31' 14.50" 1.000E-01 1.000 F 0.183 0.448 14.9 C 0.70 0.40 o G58 0.47 Yes Yes
2009KM O C 2009-05-17.34361 1.000E-05 13:23:53.780 1.500E-01 1.000 F 0.129 0.436 +27° 40' 11.70" 1.000E-01 1.000 F 0.155 -0.228 19.9 C 0.70 0.44 o G58 0.50 Yes Yes
2009KM O C 2009-05-17.34928 1.000E-05 13:23:51.540 1.500E-01 1.000 F 0.129 0.278 +27° 40' 29.00" 1.000E-01 1.000 F 0.155 -0.459 20.0 C 0.70 0.54 o G58 0.54 Yes Yes
2009KM O C 2009-05-17.35502 1.000E-05 13:23:49.270 1.500E-01 1.000 F 0.129 0.078 +27° 40' 46.90" 1.000E-01 1.000 F 0.155 -0.296 20.4 C 0.70 0.94 o G58 0.31 Yes Yes
1998SC15 O C 2009-05-17.36782 1.000E-05 15:57:09.610 1.500E-01 1.000 F 0.137 0.040 +17° 05' 49.00" 1.000E-01 1.000 F 0.282 0.200 18.8 C 0.70 0.12 o G58 0.20 Yes Yes
1998SC15 O C 2009-05-17.37348 1.000E-05 15:57:08.750 1.500E-01 1.000 F 0.137 -0.111 +17° 05' 51.20" 1.000E-01 1.000 F 0.282 0.172 19.1 C 0.70 0.42 o G58 0.20 Yes Yes
1998SC15 O C 2009-05-17.37818 1.000E-05 15:57:08.060 1.500E-01 1.000 F 0.137 0.105 +17° 05' 53.00" 1.000E-01 1.000 F 0.282 0.130 19.2 C 0.70 0.52 o G58 0.17 Yes Yes
2001FE90 O C 2009-05-18.18096 1.000E-05 09:54:43.010 1.500E-01 1.000 F 0.000 0.492 +46° 53' 35.20" 1.000E-01 1.000 F 0.353 -0.129 19.6 C 0.70 -0.52 o G58 0.51 Yes Yes
2001FE90 O C 2009-05-18.18969 1.000E-05 09:54:43.620 1.500E-01 1.000 F 0.000 0.085 +46° 53' 34.00" 1.000E-01 1.000 F 0.353 -0.181 19.2 C 0.70 -0.92 o G58 0.20 Yes Yes
2009KK O C 2009-05-18.22339 1.000E-05 13:04:23.810 1.500E-01 1.000 F 0.147 -0.155 +25° 09' 18.90" 1.000E-01 1.000 F 0.191 0.705 19.8 C 0.70 0.31 o G58 0.72 Yes Yes
2009KK O C 2009-05-18.22878 1.000E-05 13:04:22.200 1.500E-01 1.000 F 0.147 0.080 +25° 09' 11.60" 1.000E-01 1.000 F 0.191 0.553 19.7 C 0.70 0.21 o G58 0.56 Yes Yes
2009KK O C 2009-05-18.23649 1.000E-05 13:04:19.900 1.500E-01 1.000 F 0.147 0.461 +25° 09' 00.90" 1.000E-01 1.000 F 0.191 0.107 19.7 C 0.70 0.21 o G58 0.47 Yes Yes
2009MZ6 O C 2009-06-29.31022 1.000E-05 20:02:47.300 1.500E-01 1.000 F -0.084 0.214 -05° 25' 35.80" 1.000E-01 1.000 F 0.141 -0.044 19.1 C 0.70 0.21 o G58 0.22 Yes Yes
2009MZ6 O C 2009-06-29.31691 1.000E-05 20:02:47.930 1.500E-01 1.000 F -0.084 -0.700 -05° 25' 39.40" 1.000E-01 1.000 F 0.141 0.772 18.6 C 0.70 -0.29 o G58 1.05 Yes Yes
2009MZ6 O C 2009-06-29.32376 1.000E-05 20:02:48.600 1.500E-01 1.000 F -0.084 -1.239 -05° 25' 43.00" 1.000E-01 1.000 F 0.141 1.692 19.1 C 0.70 0.21 o G58 2.11 Yes Yes
2009OF O C 2009-07-27.25445 1.000E-05 16:31:08.570 1.500E-01 1.000 F 0.227 -0.367 -08° 22' 15.20" 1.000E-01 1.000 F 0.149 0.190 17.7 C 0.70 -0.23 o G58 0.41 Yes Yes
2009OF O C 2009-07-27.25810 1.000E-05 16:31:07.190 1.500E-01 1.000 F 0.227 0.120 -08° 22' 30.10" 1.000E-01 1.000 F 0.149 0.313 18.5 C 0.70 0.57 o G58 0.34 Yes Yes
2009OF O C 2009-07-27.26238 1.000E-05 16:31:05.530 1.500E-01 1.000 F 0.227 0.057 -08° 22' 48.00" 1.000E-01 1.000 F 0.149 0.032 18.5 C 0.70 0.57 o G58 0.07 Yes Yes
Cernunnos O C 2009-07-27.26988 1.000E-05 16:37:16.500 1.500E-01 1.000 F 0.094 0.047 +02° 04' 47.60" 1.000E-01 1.000 F 0.114 -0.237 18.5 C 0.70 0.15 o G58 0.24 Yes Yes
Cernunnos O C 2009-07-27.27410 1.000E-05 16:37:16.520 1.500E-01 1.000 F 0.094 -0.162 +02° 04' 44.80" 1.000E-01 1.000 F 0.114 -0.050 18.2 C 0.70 -0.15 o G58 0.17 Yes Yes
Cernunnos O C 2009-07-27.28243 1.000E-05 16:37:16.580 1.500E-01 1.000 F 0.094 -0.287 +02° 04' 38.90" 1.000E-01 1.000 F 0.114 -0.052 18.5 C 0.70 0.15 o G58 0.29 Yes Yes
2009QH6 O C 2009-08-30.30320 1.000E-05 23:58:21.950 1.500E-01 1.000 F -0.105 0.227 +76° 54' 35.00" 1.000E-01 1.000 F 0.176 -0.301 19.8 C 0.70 0.31 o G58 0.38 Yes Yes
2009QH6 O C 2009-08-30.30841 1.000E-05 23:58:18.180 1.500E-01 1.000 F -0.105 -0.241 +76° 55' 40.80" 1.000E-01 1.000 F 0.176 -0.403 19.3 C 0.70 -0.19 o G58 0.48 Yes Yes
2009QH6 O C 2009-08-30.31362 1.000E-05 23:58:14.620 1.500E-01 1.000 F -0.105 0.086 +76° 56' 46.90" 1.000E-01 1.000 F 0.176 -0.091 20.2 C 0.70 0.71 o G58 0.13 Yes Yes
2009QF34 O C 2009-08-30.35072 1.000E-05 00:40:31.540 1.500E-01 1.000 F -0.180 0.324 +04° 46' 36.70" 1.000E-01 1.000 F 0.076 0.194 21.8 C 0.70 0.99 o G58 0.38 Yes Yes
2009QF34 O C 2009-08-30.35613 1.000E-05 00:40:31.940 1.500E-01 1.000 F -0.180 -0.178 +04° 46' 36.40" 1.000E-01 1.000 F 0.076 -0.357 21.8 C 0.70 0.99 o G58 0.40 Yes Yes
2009QF34 O C 2009-08-30.36091 1.000E-05 00:40:32.360 1.500E-01 1.000 F -0.180 0.386 +04° 46' 36.60" 1.000E-01 1.000 F 0.076 -0.375 21.3 C 0.70 0.49 o G58 0.54 Yes Yes
2009QB36 O C 2009-08-30.37156 1.000E-05 01:34:18.720 1.500E-01 1.118 F -0.107 0.096 +36° 15' 44.30" 1.000E-01 1.118 F 0.233 -0.136 19.1 C 0.70 -0.23 o G58 0.15 Yes Yes
2009QB36 O C 2009-08-30.37435 1.000E-05 01:34:18.880 1.500E-01 1.118 F -0.107 0.076 +36° 15' 50.60" 1.000E-01 1.118 F 0.233 -0.324 19.1 C 0.70 -0.23 o G58 0.30 Yes Yes
2009QB36 O C 2009-08-30.37713 1.000E-05 01:34:19.000 1.500E-01 1.118 F -0.107 -0.419 +36° 15' 57.30" 1.000E-01 1.118 F 0.233 -0.087 18.8 C 0.70 -0.53 o G58 0.38 Yes Yes
2009QB36 O C 2009-08-30.37991 1.000E-05 01:34:19.190 1.500E-01 1.118 F -0.107 -0.067 +36° 16' 03.60" 1.000E-01 1.118 F 0.233 -0.249 19.1 C 0.70 -0.23 o G58 0.23 Yes Yes
2009QB36 O C 2009-08-30.38176 1.000E-05 01:34:19.290 1.500E-01 1.118 F -0.107 -0.151 +36° 16' 07.50" 1.000E-01 1.118 F 0.233 -0.649 19.2 C 0.70 -0.13 o G58 0.60 Yes Yes
2009QL32 O C 2009-08-30.39424 1.000E-05 23:35:52.140 1.500E-01 1.000 F -0.086 0.206 +03° 56' 13.00" 1.000E-01 1.000 F 0.187 -0.571 19.9 C 0.70 -0.23 o G58 0.62 Yes Yes
2009QL32 O C 2009-08-30.40671 1.000E-05 23:35:50.420 1.500E-01 1.000 F -0.078 0.275 +03° 54' 46.70" 1.000E-01 1.000 F 0.232 0.086 20.3 C 0.70 0.17 o G58 0.29 Yes Yes
2009QL32 O C 2009-08-30.41042 1.000E-05 23:35:49.880 1.500E-01 1.000 F -0.078 -0.148 +03° 54' 20.60" 1.000E-01 1.000 F 0.232 -0.159 20.8 C 0.70 0.67 o G58 0.22 Yes Yes
2009QL2 O C 2009-09-21.25517 1.000E-05 23:00:49.100 1.500E-01 1.000 F 0.004 0.512 +31° 37' 07.30" 1.000E-01 1.000 F 0.256 0.187 20.6 C 0.70 0.18 o G58 0.56 Yes Yes
2009QL2 O C 2009-09-21.26211 1.000E-05 23:00:48.580 1.500E-01 1.000 F 0.004 -0.162 +31° 37' 07.10" 1.000E-01 1.000 F 0.256 0.378 20.4 C 0.70 -0.02 o G58 0.43 Yes Yes
2009QL2 O C 2009-09-21.26919 1.000E-05 23:00:48.120 1.500E-01 1.000 F 0.004 0.056 +31° 37' 06.30" 1.000E-01 1.000 F 0.256 -0.004 20.4 C 0.70 -0.02 o G58 0.06 Yes Yes
2009SW O C 2009-09-21.29649 1.000E-05 23:32:55.750 1.500E-01 1.000 F -0.034 -0.228 +07° 07' 03.00" 1.000E-01 1.000 F 0.237 -0.171 19.5 C 0.70 0.22 o G58 0.29 Yes Yes
2009SW O C 2009-09-21.30072 1.000E-05 23:32:56.120 1.500E-01 1.000 F -0.034 0.173 +07° 06' 58.10" 1.000E-01 1.000 F 0.237 0.115 19.7 C 0.70 0.42 o G58 0.21 Yes Yes
2009SW O C 2009-09-21.30495 1.000E-05 23:32:56.450 1.500E-01 1.000 F -0.034 -0.019 +07° 06' 52.70" 1.000E-01 1.000 F 0.237 -0.096 19.7 C 0.70 0.42 o G58 0.10 Yes Yes
2009SM103 O C 2009-09-28.19940 1.000E-05 20:33:34.020 1.500E-01 1.000 F -0.054 -0.019 +13° 03' 02.50" 1.000E-01 1.000 F 0.182 -0.091 17.0 C 0.70 0.20 o G58 0.09 Yes Yes
2009SM103 O C 2009-09-28.20292 1.000E-05 20:33:34.560 1.500E-01 1.000 F -0.054 -0.091 +13° 03' 05.60" 1.000E-01 1.000 F 0.182 -0.142 17.0 C 0.70 0.20 o G58 0.17 Yes Yes
2009SM103 O C 2009-09-28.21368 1.000E-05 20:33:36.220 1.500E-01 1.000 F -0.054 -0.185 +13° 03' 15.20" 1.000E-01 1.000 F 0.182 -0.162 17.0 C 0.70 0.20 o G58 0.25 Yes Yes
2009ST103 O C 2009-09-28.22713 1.000E-05 22:11:40.930 1.500E-01 1.000 F 0.016 0.239 +22° 03' 42.80" 1.000E-01 1.000 F 0.225 -0.265 19.2 C 0.70 0.36 o G58 0.36 Yes Yes
2009ST103 O C 2009-09-28.23130 1.000E-05 22:11:40.370 1.500E-01 1.000 F 0.016 -0.035 +22° 03' 39.00" 1.000E-01 1.000 F 0.225 0.219 19.1 C 0.70 0.26 o G58 0.22 Yes Yes
2009ST103 O C 2009-09-28.23547 1.000E-05 22:11:39.840 1.500E-01 1.000 F 0.016 0.109 +22° 03' 34.40" 1.000E-01 1.000 F 0.225 -0.093 19.2 C 0.70 0.36 o G58 0.14 Yes Yes
2009SL104 O C 2009-09-28.24292 1.000E-05 23:13:51.380 1.500E-01 1.000 F 0.081 -0.234 +39° 49' 20.50" 1.000E-01 1.000 F 0.168 -0.109 19.2 C 0.70 0.19 o G58 0.26 Yes Yes
2009SL104 O C 2009-09-28.24481 1.000E-05 23:13:51.700 1.500E-01 1.000 F 0.081 -0.204 +39° 49' 38.20" 1.000E-01 1.000 F 0.168 -0.135 19.4 C 0.70 0.39 o G58 0.25 Yes Yes
2009SL104 O C 2009-09-28.24670 1.000E-05 23:13:52.060 1.500E-01 1.000 F 0.081 0.288 +39° 49' 56.10" 1.000E-01 1.000 F 0.168 0.045 19.3 C 0.70 0.29 o G58 0.29 Yes Yes
2009SU104 O C 2009-09-28.25231 1.000E-05 23:12:06.830 1.500E-01 1.000 F -0.156 0.123 +00° 55' 22.60" 1.000E-01 1.000 F 0.291 0.189 19.3 C 0.70 0.40 o G58 0.23 Yes Yes
2009SU104 O C 2009-09-28.25435 1.000E-05 23:12:05.360 1.500E-01 1.000 F -0.156 -0.144 +00° 55' 30.60" 1.000E-01 1.000 F 0.291 -0.258 19.4 C 0.70 0.50 o G58 0.30 Yes Yes
2009SU104 O C 2009-09-28.25639 1.000E-05 23:12:03.940 1.500E-01 1.000 F -0.156 0.369 +00° 55' 39.00" 1.000E-01 1.000 F 0.291 -0.313 19.4 C 0.70 0.50 o G58 0.49 Yes Yes
2009SX17 O C 2009-09-28.26241 1.000E-05 00:37:03.240 1.500E-01 1.000 F -0.130 -0.196 +22° 56' 54.90" 1.000E-01 1.000 F 0.247 -0.677 19.6 C 0.70 0.15 o G58 0.71 Yes Yes
2009SX17 O C 2009-09-28.26494 1.000E-05 00:37:04.630 1.500E-01 1.000 F -0.130 -0.231 +22° 57' 04.50" 1.000E-01 1.000 F 0.247 -0.378 19.6 C 0.70 0.15 o G58 0.45 Yes Yes
2009SX17 O C 2009-09-28.26746 1.000E-05 00:37:06.020 1.500E-01 1.000 F -0.130 -0.178 +22° 57' 13.50" 1.000E-01 1.000 F 0.247 -0.634 19.2 C 0.70 -0.25 o G58 0.67 Yes Yes
2009SO103 O C 2009-09-28.27566 1.000E-05 00:23:28.210 1.500E-01 1.000 F -0.010 0.089 +11° 12' 40.50" 1.000E-01 1.000 F 0.344 -0.008 19.4 C 0.70 0.41 o G58 0.09 Yes Yes
2009SO103 O C 2009-09-28.27938 1.000E-05 00:23:27.870 1.500E-01 1.000 F -0.010 0.224 +11° 12' 35.60" 1.000E-01 1.000 F 0.344 0.199 19.4 C 0.70 0.41 o G58 0.30 Yes Yes
2009SO103 O C 2009-09-28.28344 1.000E-05 00:23:27.480 1.500E-01 1.000 F -0.010 0.094 +11° 12' 29.80" 1.000E-01 1.000 F 0.344 -0.026 19.4 C 0.70 0.41 o G58 0.10 Yes Yes
2009SW19 O C 2009-09-28.29107 1.000E-05 00:16:51.580 1.500E-01 1.000 F -0.299 -0.036 -01° 16' 27.90" 1.000E-01 1.000 F 0.201 -0.084 19.0 C 0.70 0.02 o G58 0.09 Yes Yes
2009SW19 O C 2009-09-28.29365 1.000E-05 00:16:51.120 1.500E-01 1.000 F -0.299 -0.117 -01° 16' 42.50" 1.000E-01 1.000 F 0.201 -0.149 18.5 C 0.70 -0.48 o G58 0.19 Yes Yes
2009SW19 O C 2009-09-28.29623 1.000E-05 00:16:50.660 1.500E-01 1.000 F -0.299 -0.198 -01° 16' 56.70" 1.000E-01 1.000 F 0.201 0.186 19.2 C 0.70 0.22 o G58 0.27 Yes Yes
2009US19 O C 2009-10-25.27745 1.000E-05 23:30:47.520 1.500E-01 1.000 F -0.096 -0.104 +03° 13' 08.40" 1.000E-01 1.000 F 0.249 0.166 18.6 C 0.70 -0.23 o G58 0.20 Yes Yes
2009US19 O C 2009-10-25.27920 1.000E-05 23:30:47.450 1.500E-01 1.000 F -0.096 0.121 +03° 12' 52.40" 1.000E-01 1.000 F 0.249 0.074 18.7 C 0.70 -0.13 o G58 0.14 Yes Yes
2009US19 O C 2009-10-25.28093 1.000E-05 23:30:47.380 1.500E-01 1.000 F -0.096 0.327 +03° 12' 36.80" 1.000E-01 1.000 F 0.249 0.205 19.2 C 0.70 0.37 o G58 0.39 Yes Yes
2009UA O C 2009-10-26.18169 1.000E-05 23:36:52.170 1.500E-01 1.000 F -0.091 -0.063 +37° 24' 17.30" 1.000E-01 1.000 F 0.214 -0.087 20.1 C 0.70 0.16 o G58 0.13 Yes Yes
2009UA O C 2009-10-26.18597 1.000E-05 23:36:53.690 1.500E-01 1.000 F -0.091 -0.139 +37° 24' 30.20" 1.000E-01 1.000 F 0.214 0.321 20.3 C 0.70 0.36 o G58 0.41 Yes Yes
2009UA O C 2009-10-26.19025 1.000E-05 23:36:55.220 1.500E-01 1.000 F -0.091 -0.083 +37° 24' 42.50" 1.000E-01 1.000 F 0.214 0.162 20.2 C 0.70 0.26 o G58 0.21 Yes Yes
2009UQ5 O C 2009-10-26.20130 1.000E-05 02:04:10.050 1.500E-01 1.000 F -0.271 0.316 +15° 13' 37.30" 1.000E-01 1.000 F 0.188 0.265 20.2 C 0.70 0.32 o G58 0.42 Yes Yes
2009UQ5 O C 2009-10-26.20558 1.000E-05 02:04:11.300 1.500E-01 1.000 F -0.271 0.380 +15° 13' 35.90" 1.000E-01 1.000 F 0.188 0.284 20.5 C 0.70 0.62 o G58 0.48 Yes Yes
2009UQ5 O C 2009-10-26.20986 1.000E-05 02:04:12.530 1.500E-01 1.000 F -0.271 0.183 +15° 13' 34.00" 1.000E-01 1.000 F 0.188 -0.190 20.1 C 0.70 0.22 o G58 0.26 Yes Yes
2009UJ14 O C 2009-10-26.25459 1.000E-05 01:45:23.140 1.500E-01 1.000 F -0.162 -0.083 +06° 34' 17.50" 1.000E-01 1.000 F 0.226 -0.299 20.8 C 0.70 0.54 o G58 0.32 Yes Yes
2009UJ14 O C 2009-10-26.25923 1.000E-05 01:45:22.670 1.500E-01 1.000 F -0.162 0.468 +06° 33' 52.90" 1.000E-01 1.000 F 0.226 -0.452 20.6 C 0.70 0.34 o G58 0.66 Yes Yes
2009UJ14 O C 2009-10-26.26387 1.000E-05 01:45:22.270 1.500E-01 1.000 F -0.162 2.064 +06° 33' 29.20" 1.000E-01 1.000 F 0.226 0.293 20.8 C 0.70 0.54 o G58 2.10 Yes Yes
2007BX48 O C 2009-11-19.29925 1.000E-05 02:37:54.720 1.500E-01 1.000 F -0.114 0.325 +63° 12' 04.30" 1.000E-01 1.000 F 0.107 0.204 20.1 C 0.70 0.18 o G58 0.37 Yes Yes
2007BX48 O C 2009-11-19.30343 1.000E-05 02:37:54.180 1.500E-01 1.000 F -0.114 0.163 +63° 11' 54.40" 1.000E-01 1.000 F 0.107 0.311 20.3 C 0.70 0.38 o G58 0.35 Yes Yes
2007BX48 O C 2009-11-19.30759 1.000E-05 02:37:53.680 1.500E-01 1.000 F -0.114 0.252 +63° 11' 44.30" 1.000E-01 1.000 F 0.107 0.181 20.3 C 0.70 0.38 o G58 0.30 Yes Yes
2009VR44 O C 2009-11-19.32050 1.000E-05 03:46:09.170 1.500E-01 1.000 F -0.131 0.429 +23° 01' 14.20" 1.000E-01 1.000 F 0.243 -0.600 20.5 C 0.70 0.70 o G58 0.76 Yes Yes
2009VR44 O C 2009-11-19.32480 1.000E-05 03:46:09.540 1.500E-01 1.000 F -0.131 -0.145 +23° 01' 39.10" 1.000E-01 1.000 F 0.243 -0.198 20.1 C 0.70 0.30 o G58 0.26 Yes Yes
2009VR44 O C 2009-11-19.32910 1.000E-05 03:46:09.980 1.500E-01 1.000 F -0.131 0.253 +23° 02' 03.50" 1.000E-01 1.000 F 0.243 -0.260 20.1 C 0.70 0.30 o G58 0.37 Yes Yes
2009VS44 O C 2009-11-19.33968 1.000E-05 03:18:46.750 1.500E-01 1.000 F -0.089 -0.043 +35° 00' 12.00" 1.000E-01 1.000 F 0.191 -0.175 19.9 C 0.70 0.07 o G58 0.18 Yes Yes
2009VS44 O C 2009-11-19.34428 1.000E-05 03:18:47.410 1.500E-01 1.000 F -0.089 -0.021 +35° 00' 43.90" 1.000E-01 1.000 F 0.191 -0.230 19.9 C 0.70 0.07 o G58 0.23 Yes Yes
2009VS44 O C 2009-11-19.34887 1.000E-05 03:18:48.100 1.500E-01 1.000 F -0.089 0.374 +35° 01' 15.50" 1.000E-01 1.000 F 0.191 -0.425 19.9 C 0.70 0.07 o G58 0.57 Yes Yes
2010CF19 O C K 2010-02-18.16515 1.000E-05 06:41:19.420 1.500E-01 1.000 F -0.111 -0.084 +11° 53' 51.60" 1.000E-01 1.000 F 0.130 0.115 18.7 C 0.70 -0.06 o G58 0.14 Yes Yes
2010CF19 O C K 2010-02-18.16899 1.000E-05 06:41:20.860 1.500E-01 1.000 F -0.111 -0.148 +11° 54' 07.00" 1.000E-01 1.000 F 0.130 -0.038 18.6 C 0.70 -0.16 o G58 0.15 Yes Yes
2010CF19 O C K 2010-02-18.17282 1.000E-05 06:41:22.300 1.500E-01 1.000 F -0.111 -0.146 +11° 54' 22.60" 1.000E-01 1.000 F 0.130 0.060 18.6 C 0.70 -0.16 o G58 0.16 Yes Yes
2010CB19 O C K 2010-02-18.17973 1.000E-05 07:57:07.150 1.500E-01 1.000 F -0.019 0.272 +07° 49' 44.20" 1.000E-01 1.000 F -0.016 0.018 19.4 C 0.70 0.01 o G58 0.28 Yes Yes
2010CB19 O C K 2010-02-18.18257 1.000E-05 07:57:07.680 1.500E-01 1.000 F -0.019 0.072 +07° 49' 37.60" 1.000E-01 1.000 F -0.016 -0.243 19.2 C 0.70 -0.19 o G58 0.26 Yes Yes
2010CB19 O C K 2010-02-18.18541 1.000E-05 07:57:08.230 1.500E-01 1.000 F -0.019 0.189 +07° 49' 31.60" 1.000E-01 1.000 F -0.016 0.097 19.6 C 0.70 0.21 o G58 0.22 Yes Yes
2010CO44 O C K 2010-02-18.19663 1.000E-05 08:46:25.350 1.500E-01 1.000 F 0.001 0.144 +18° 04' 45.80" 1.000E-01 1.000 F 0.101 -0.026 20.1 C 0.70 -0.18 o G58 0.15 Yes Yes
2010CO44 O C K 2010-02-18.20232 1.000E-05 08:46:24.720 1.500E-01 1.000 F 0.001 0.068 +18° 04' 27.40" 1.000E-01 1.000 F 0.101 0.278 20.2 C 0.70 -0.09 o G58 0.29 Yes Yes
2010CO44 O C K 2010-02-18.21278 1.000E-05 08:46:23.550 1.500E-01 1.000 F 0.001 -0.133 +18° 03' 52.90" 1.000E-01 1.000 F 0.101 0.200 20.3 C 0.70 0.01 o G58 0.24 Yes Yes
2010CL1 O C K 2010-02-18.22843 1.000E-05 08:56:44.550 1.500E-01 1.000 F 0.058 0.051 +11° 02' 26.80" 1.000E-01 1.000 F 0.193 -0.215 19.3 C 0.70 -0.07 o G58 0.22 Yes Yes
2010CL1 O C K 2010-02-18.23182 1.000E-05 08:56:44.430 1.500E-01 1.000 F 0.058 0.131 +11° 02' 34.50" 1.000E-01 1.000 F 0.193 0.069 19.2 C 0.70 -0.17 o G58 0.15 Yes Yes
2010CL1 O C K 2010-02-18.23521 1.000E-05 08:56:44.300 1.500E-01 1.000 F 0.058 0.066 +11° 02' 42.00" 1.000E-01 1.000 F 0.193 0.156 19.2 C 0.70 -0.17 o G58 0.17 Yes Yes
2010DJ1 O C K 2010-02-18.24613 1.000E-05 09:59:21.900 1.500E-01 1.000 F 0.072 0.751 +20° 19' 38.70" 1.000E-01 1.000 F 0.177 -0.590 20.1 C 0.70 -0.22 o G58 0.96 Yes Yes
2010DJ1 O C K 2010-02-18.25182 1.000E-05 09:59:20.190 1.500E-01 1.000 F 0.072 0.574 +20° 19' 38.80" 1.000E-01 1.000 F 0.177 -0.219 20.0 C 0.70 -0.32 o G58 0.62 Yes Yes
2010DJ1 O C K 2010-02-18.25750 1.000E-05 09:59:18.500 1.500E-01 1.000 F 0.072 0.826 +20° 19' 38.90" 1.000E-01 1.000 F 0.177 0.214 20.1 C 0.70 -0.21 o G58 0.86 Yes Yes
2001FD58 O C 2010-03-07.33130 1.000E-05 06:45:13.660 1.500E-01 1.000 F 0.057 -0.450 +26° 27' 49.90" 1.000E-01 1.000 F 0.165 -0.034 18.2 C 0.70 0.59 o G58 0.45 Yes Yes
2001FD58 O C 2010-03-07.33459 1.000E-05 06:45:15.220 1.500E-01 1.000 F 0.057 0.291 +26° 27' 42.90" 1.000E-01 1.000 F 0.165 0.032 18.3 C 0.70 0.69 o G58 0.29 Yes Yes
2001FD58 O C 2010-03-07.34024 1.000E-05 06:45:17.770 1.500E-01 1.000 F 0.057 -0.180 +26° 27' 30.50" 1.000E-01 1.000 F 0.165 -0.230 18.4 C 0.70 0.79 o G58 0.29 Yes Yes
2010CF55 O C K 2010-03-07.34835 1.000E-05 08:08:34.910 1.500E-01 1.000 F -0.046 0.080 +07° 56' 57.10" 1.000E-01 1.000 F -0.047 0.151 19.8 C 0.70 -0.15 o G58 0.18 Yes Yes
2010CF55 O C K 2010-03-07.35184 1.000E-05 08:08:32.800 1.500E-01 1.000 F -0.046 0.447 +07° 56' 57.90" 1.000E-01 1.000 F -0.047 0.020 19.7 C 0.70 -0.25 o G58 0.51 Yes Yes
2010CF55 O C K 2010-03-07.35532 1.000E-05 08:08:30.690 1.500E-01 1.000 F -0.046 0.717 +07° 56' 59.00" 1.000E-01 1.000 F -0.047 0.193 19.8 C 0.70 -0.15 o G58 0.83 Yes Yes
2010DF1 O C K 2010-03-11.19964 1.000E-05 10:05:08.920 1.500E-01 1.000 F 0.122 0.192 +31° 28' 25.30" 1.000E-01 1.000 F 0.185 -0.357 19.8 C 0.70 -0.29 o G58 0.41 Yes Yes
2010DF1 O C K 2010-03-11.20394 1.000E-05 10:05:08.200 1.500E-01 1.000 F 0.122 0.554 +31° 28' 54.00" 1.000E-01 1.000 F 0.185 0.298 20.3 C 0.70 0.21 o G58 0.63 Yes Yes
2010DF1 O C K 2010-03-11.20823 1.000E-05 10:05:07.420 1.500E-01 1.000 F 0.122 0.138 +31° 29' 21.80" 1.000E-01 1.000 F 0.185 0.125 20.6 C 0.70 0.51 o G58 0.19 Yes Yes
2010ED43 O C K 2010-03-14.32743 1.000E-05 08:58:17.080 1.500E-01 1.000 F -0.001 -0.489 +16° 34' 21.60" 1.000E-01 1.000 F 0.147 -0.245 20.4 C 0.70 0.07 o G58 0.55 Yes Yes
2010ED43 O C K 2010-03-14.33084 1.000E-05 08:58:16.900 1.500E-01 1.000 F -0.001 0.098 +16° 34' 36.90" 1.000E-01 1.000 F 0.147 0.479 20.5 C 0.70 0.17 o G58 0.49 Yes Yes
2010ED43 O C K 2010-03-14.33425 1.000E-05 08:58:16.700 1.500E-01 1.000 F 0.097 0.296 +16° 34' 51.40" 1.000E-01 1.000 F 0.187 0.365 20.4 C 0.70 0.06 o G58 0.47 Yes Yes
2010CG19 O C K 2010-03-14.36916 1.000E-05 09:08:58.970 1.500E-01 1.000 F 0.107 0.523 +40° 17' 18.10" 1.000E-01 1.000 F 0.284 -0.285 19.6 C 0.70 -1.11 o G58 0.60 Yes Yes
2010CG19 O C K 2010-03-14.37379 1.000E-05 09:08:58.370 1.500E-01 1.000 F 0.107 0.968 +40° 17' 31.60" 1.000E-01 1.000 F 0.284 0.146 20.9 C 0.70 0.19 o G58 0.99 Yes Yes
2010CG19 O C K 2010-03-14.37842 1.000E-05 09:08:57.640 1.500E-01 1.000 F 0.107 -0.080 +40° 17' 44.50" 1.000E-01 1.000 F 0.284 -0.017 20.4 C 0.70 -0.31 o G58 0.08 Yes Yes
2001FD58 O C 2010-03-18.13984 1.000E-05 07:43:38.960 1.500E-01 1.000 F -0.109 -0.266 +21° 24' 04.40" 1.000E-01 1.000 F 0.303 -0.005 18.5 C 0.70 0.06 o G58 0.27 Yes Yes
2001FD58 O C 2010-03-18.14480 1.000E-05 07:43:40.070 1.500E-01 1.000 F -0.109 -0.181 +21° 23' 58.00" 1.000E-01 1.000 F 0.303 0.157 18.4 C 0.70 -0.04 o G58 0.24 Yes Yes
2001FD58 O C 2010-03-18.15503 1.000E-05 07:43:42.360 1.500E-01 1.000 F -0.109 0.024 +21° 23' 44.50" 1.000E-01 1.000 F 0.303 0.207 18.3 C 0.70 -0.14 o G58 0.21 Yes Yes
2010CL1 O C K 2010-03-18.16463 1.000E-05 08:57:33.830 1.500E-01 1.000 F -0.006 0.032 +22° 21' 22.70" 1.000E-01 1.000 F 0.264 0.288 20.0 C 0.70 -0.88 o G58 0.29 Yes Yes
2010CL1 O C K 2010-03-18.17417 1.000E-05 08:57:34.140 1.500E-01 1.000 F -0.006 0.265 +22° 21' 30.10" 1.000E-01 1.000 F 0.264 -0.056 20.4 C 0.70 -0.48 o G58 0.27 Yes Yes
2010CL1 O C K 2010-03-18.18304 1.000E-05 08:57:34.390 1.500E-01 1.000 F -0.006 -0.042 +22° 21' 38.60" 1.000E-01 1.000 F 0.264 1.257 20.8 C 0.70 -0.08 o G58 1.26 Yes Yes
2010FO O C K 2010-03-18.21538 1.000E-05 10:06:39.160 1.500E-01 1.000 F 0.068 -0.302 +14° 27' 38.50" 1.000E-01 1.000 F 0.171 -0.030 18.6 C 0.70 -1.30 o G58 0.31 Yes Yes
2010FO O C K 2010-03-18.21965 1.000E-05 10:06:40.350 1.500E-01 1.000 F 0.068 -0.062 +14° 27' 35.70" 1.000E-01 1.000 F 0.171 0.061 19.3 C 0.70 -0.60 o G58 0.09 Yes Yes
2010FO O C K 2010-03-18.22391 1.000E-05 10:06:41.530 1.500E-01 1.000 F 0.068 0.089 +14° 27' 32.60" 1.000E-01 1.000 F 0.171 -0.142 19.6 C 0.70 -0.30 o G58 0.17 Yes Yes
2010FL O C K 2010-03-18.25868 1.000E-05 10:51:22.060 1.500E-01 1.000 F 0.050 0.312 +40° 10' 32.90" 1.000E-01 1.000 F 0.260 0.240 19.6 C 0.70 -0.14 o G58 0.40 Yes Yes
2010FL O C K 2010-03-18.26553 1.000E-05 10:51:20.680 1.500E-01 1.000 F 0.050 0.057 +40° 10' 41.10" 1.000E-01 1.000 F 0.260 -0.075 19.5 C 0.70 -0.24 o G58 0.10 Yes Yes
2010FL O C K 2010-03-18.27370 1.000E-05 10:51:19.030 1.500E-01 1.000 F 0.050 -0.283 +40° 10' 51.20" 1.000E-01 1.000 F 0.260 -0.111 19.7 C 0.70 -0.04 o G58 0.31 Yes Yes
2010CH18 O C K 2010-04-02.21921 1.000E-05 09:38:43.480 1.500E-01 1.000 F -0.063 0.240 +78° 48' 40.00" 1.000E-01 1.000 F 0.392 0.023 19.1 C 0.70 -0.43 o G58 0.24 Yes Yes
2010CH18 O C K 2010-04-02.22597 1.000E-05 09:38:47.920 1.500E-01 1.000 F -0.063 0.252 +78° 48' 19.90" 1.000E-01 1.000 F 0.392 0.413 19.7 C 0.70 0.17 o G58 0.49 Yes Yes
2010CH18 O C K 2010-04-02.23274 1.000E-05 09:38:52.370 1.500E-01 1.000 F -0.063 0.283 +78° 47' 59.20" 1.000E-01 1.000 F 0.392 0.265 19.3 C 0.70 -0.23 o G58 0.39 Yes Yes

[1-200] [201-400] [401-600] [601-800] [801-1000] [1001-1200] [1201-1400] [1401-1600] [1601-1725]